createdAt,value
2018-06-20T00:00:03.112Z,18.70
2018-06-20T00:01:04.732Z,19.50
2018-06-20T00:02:03.370Z,19.70
2018-06-20T00:03:03.245Z,18.50
2018-06-20T00:04:03.538Z,19.20
2018-06-20T00:05:02.850Z,19.60
2018-06-20T00:06:03.646Z,20.30
2018-06-20T00:07:02.850Z,19.60
2018-06-20T00:08:03.273Z,18.90
2018-06-20T00:09:03.406Z,20.10
2018-06-20T00:10:03.263Z,18.70
2018-06-20T00:11:03.318Z,19.20
2018-06-20T00:12:03.535Z,19.60
2018-06-20T00:13:02.845Z,19.70
2018-06-20T00:14:03.246Z,18.20
2018-06-20T00:15:03.255Z,18.20
2018-06-20T00:16:03.249Z,17.90
2018-06-20T00:17:03.251Z,18.70
2018-06-20T00:18:03.634Z,18.00
2018-06-20T00:19:03.253Z,18.40
2018-06-20T00:20:03.694Z,19.20
2018-06-20T00:21:02.852Z,18.20
2018-06-20T00:22:03.200Z,19.80
2018-06-20T00:23:03.227Z,18.70
2018-06-20T00:24:03.209Z,18.90
2018-06-20T00:25:03.103Z,18.90
2018-06-20T00:26:03.182Z,18.90
2018-06-20T00:27:03.209Z,19.00
2018-06-20T00:28:03.220Z,18.90
2018-06-20T00:29:03.305Z,20.30
2018-06-20T00:30:03.664Z,19.30
2018-06-20T00:31:03.800Z,18.60
2018-06-20T00:32:02.881Z,19.60
2018-06-20T00:33:03.215Z,20.50
2018-06-20T00:34:03.192Z,20.10
2018-06-20T00:35:03.359Z,18.90
2018-06-20T00:36:03.435Z,18.80
2018-06-20T00:37:03.405Z,20.10
2018-06-20T00:38:03.188Z,18.60
2018-06-20T00:39:03.423Z,19.00
2018-06-20T00:40:03.262Z,19.30
2018-06-20T00:41:03.500Z,19.00
2018-06-20T00:42:02.886Z,18.00
2018-06-20T00:43:03.358Z,18.80
2018-06-20T00:44:03.436Z,18.80
2018-06-20T00:45:03.309Z,18.00
2018-06-20T00:46:03.308Z,18.60
2018-06-20T00:47:03.437Z,18.40
2018-06-20T00:48:03.419Z,18.50
2018-06-20T00:49:03.347Z,18.40
2018-06-20T00:50:03.491Z,17.80
2018-06-20T00:51:03.160Z,18.40
2018-06-20T00:52:03.093Z,17.80
2018-06-20T00:53:03.202Z,18.10
2018-06-20T00:54:03.216Z,18.60
2018-06-20T00:55:03.198Z,18.10
2018-06-20T00:56:03.191Z,18.40
2018-06-20T00:57:03.181Z,18.10
2018-06-20T00:58:03.229Z,17.70
2018-06-20T00:59:03.219Z,18.30
2018-06-20T01:00:03.378Z,18.80
2018-06-20T01:01:03.280Z,19.80
2018-06-20T01:02:03.138Z,18.20
2018-06-20T01:03:03.212Z,19.40
2018-06-20T01:04:03.216Z,19.30
2018-06-20T01:05:03.215Z,19.00
2018-06-20T01:06:03.230Z,19.00
2018-06-20T01:07:03.269Z,19.70
2018-06-20T01:08:03.286Z,19.20
2018-06-20T01:09:03.214Z,18.60
2018-06-20T01:10:03.306Z,18.90
2018-06-20T01:11:03.393Z,18.10
2018-06-20T01:12:03.405Z,17.80
2018-06-20T01:13:03.252Z,19.20
2018-06-20T01:14:03.221Z,19.90
2018-06-20T01:15:03.421Z,19.10
2018-06-20T01:16:03.437Z,19.80
2018-06-20T01:17:03.222Z,19.60
2018-06-20T01:18:03.453Z,19.60
2018-06-20T01:19:03.192Z,19.80
2018-06-20T01:20:03.434Z,21.20
2018-06-20T01:21:03.489Z,21.10
2018-06-20T01:22:03.172Z,22.10
2018-06-20T01:23:03.160Z,21.80
2018-06-20T01:24:03.198Z,21.90
2018-06-20T01:25:03.210Z,22.00
2018-06-20T01:26:03.355Z,22.40
2018-06-20T01:27:03.237Z,21.80
2018-06-20T01:28:03.405Z,21.40
2018-06-20T01:29:03.164Z,22.20
2018-06-20T01:30:03.233Z,22.60
2018-06-20T01:31:03.234Z,21.80
2018-06-20T01:32:03.139Z,21.20
2018-06-20T01:33:03.305Z,21.20
2018-06-20T01:34:03.219Z,21.30
2018-06-20T01:35:03.285Z,20.80
2018-06-20T01:36:03.242Z,21.20
2018-06-20T01:37:03.209Z,22.00
2018-06-20T01:38:03.251Z,22.20
2018-06-20T01:39:03.146Z,20.80
2018-06-20T01:40:03.826Z,24.00
2018-06-20T01:41:03.237Z,22.00
2018-06-20T01:42:03.234Z,24.10
2018-06-20T01:43:03.225Z,23.60
2018-06-20T01:44:03.273Z,24.50
2018-06-20T01:45:03.241Z,23.60
2018-06-20T01:46:03.256Z,22.80
2018-06-20T01:47:03.246Z,24.00
2018-06-20T01:48:03.249Z,23.60
2018-06-20T01:49:03.478Z,23.20
2018-06-20T01:50:05.229Z,23.20
2018-06-20T01:51:03.253Z,23.80
2018-06-20T01:52:03.289Z,23.50
2018-06-20T01:53:03.247Z,22.50
2018-06-20T01:54:03.235Z,24.10
2018-06-20T01:55:03.182Z,23.40
2018-06-20T01:56:03.171Z,24.20
2018-06-20T01:57:03.230Z,23.50
2018-06-20T01:58:03.092Z,24.50
2018-06-20T01:59:03.164Z,25.50
2018-06-20T02:00:03.148Z,25.00
2018-06-20T02:01:03.152Z,25.00
2018-06-20T02:02:03.199Z,23.80
2018-06-20T02:03:03.405Z,24.30
2018-06-20T02:04:03.331Z,24.80
2018-06-20T02:05:03.332Z,24.50
2018-06-20T02:06:03.451Z,23.90
2018-06-20T02:07:03.836Z,24.60
2018-06-20T02:08:03.316Z,24.50
2018-06-20T02:09:03.854Z,24.40
2018-06-20T02:10:03.354Z,24.60
2018-06-20T02:11:03.311Z,24.60
2018-06-20T02:12:03.307Z,24.60
2018-06-20T02:13:03.221Z,24.10
2018-06-20T02:14:03.170Z,23.00
2018-06-20T02:15:03.844Z,24.40
2018-06-20T02:16:03.421Z,23.70
2018-06-20T02:17:02.969Z,23.80
2018-06-20T02:18:03.312Z,25.70
2018-06-20T02:19:03.651Z,23.70
2018-06-20T02:20:03.348Z,24.40
2018-06-20T02:21:02.915Z,25.70
2018-06-20T02:22:03.258Z,24.80
2018-06-20T02:23:03.844Z,26.10
2018-06-20T02:24:03.237Z,24.30
2018-06-20T02:25:02.896Z,24.50
2018-06-20T02:26:03.303Z,24.70
2018-06-20T02:27:03.321Z,24.40
2018-06-20T02:28:03.315Z,24.40
2018-06-20T02:29:03.801Z,25.60
2018-06-20T02:30:03.307Z,24.70
2018-06-20T02:31:03.308Z,25.70
2018-06-20T02:32:03.307Z,25.10
2018-06-20T02:33:03.297Z,25.70
2018-06-20T02:34:03.297Z,24.60
2018-06-20T02:35:03.307Z,25.20
2018-06-20T02:36:03.271Z,24.60
2018-06-20T02:37:03.133Z,25.00
2018-06-20T02:38:03.324Z,24.30
2018-06-20T02:39:05.332Z,24.00
2018-06-20T02:40:03.165Z,25.90
2018-06-20T02:41:03.157Z,26.40
2018-06-20T02:42:03.143Z,25.50
2018-06-20T02:43:03.345Z,26.00
2018-06-20T02:44:03.826Z,25.20
2018-06-20T02:45:03.324Z,26.40
2018-06-20T02:46:03.310Z,24.10
2018-06-20T02:47:03.155Z,24.90
2018-06-20T02:48:03.188Z,26.10
2018-06-20T02:49:03.311Z,24.60
2018-06-20T02:50:03.214Z,25.50
2018-06-20T02:51:03.306Z,25.30
2018-06-20T02:52:03.310Z,26.60
2018-06-20T02:53:03.308Z,26.50
2018-06-20T02:54:03.312Z,25.50
2018-06-20T02:55:03.313Z,26.20
2018-06-20T02:56:03.238Z,26.30
2018-06-20T02:57:03.319Z,25.10
2018-06-20T02:58:03.310Z,24.20
2018-06-20T02:59:03.315Z,24.30
2018-06-20T03:00:03.305Z,24.60
2018-06-20T03:01:03.318Z,26.20
2018-06-20T03:02:03.307Z,26.10
2018-06-20T03:03:03.319Z,26.20
2018-06-20T03:04:03.888Z,26.90
2018-06-20T03:05:03.309Z,25.60
2018-06-20T03:06:03.214Z,25.70
2018-06-20T03:07:03.150Z,24.50
2018-06-20T03:08:03.184Z,26.40
2018-06-20T03:09:03.487Z,25.80
2018-06-20T03:10:03.334Z,27.00
2018-06-20T03:11:03.309Z,25.20
2018-06-20T03:12:03.407Z,25.10
2018-06-20T03:13:03.353Z,26.00
2018-06-20T03:14:03.384Z,27.20
2018-06-20T03:15:03.310Z,27.90
2018-06-20T03:16:03.668Z,26.90
2018-06-20T03:17:03.342Z,27.10
2018-06-20T03:18:03.211Z,26.20
2018-06-20T03:19:03.169Z,26.80
2018-06-20T03:20:03.177Z,28.70
2018-06-20T03:21:03.239Z,27.10
2018-06-20T03:22:03.214Z,25.80
2018-06-20T03:23:03.267Z,25.80
2018-06-20T03:24:03.324Z,26.20
2018-06-20T03:25:03.320Z,27.50
2018-06-20T03:26:03.229Z,27.10
2018-06-20T03:27:03.340Z,27.60
2018-06-20T03:28:03.830Z,27.60
2018-06-20T03:29:03.317Z,28.40
2018-06-20T03:30:03.376Z,26.10
2018-06-20T03:31:03.470Z,27.40
2018-06-20T03:32:03.238Z,27.50
2018-06-20T03:33:03.328Z,26.60
2018-06-20T03:34:03.252Z,27.00
2018-06-20T03:35:05.170Z,27.20
2018-06-20T03:36:03.203Z,27.40
2018-06-20T03:37:02.937Z,28.20
2018-06-20T03:38:03.282Z,28.70
2018-06-20T03:39:03.345Z,27.20
2018-06-20T03:41:03.221Z,27.70
2018-06-20T03:42:03.320Z,29.70
2018-06-20T03:43:03.220Z,29.60
2018-06-20T03:44:03.425Z,27.70
2018-06-20T03:45:03.658Z,27.80
2018-06-20T03:46:03.343Z,29.30
2018-06-20T03:48:04.000Z,28.80
2018-06-20T03:49:03.292Z,27.30
2018-06-20T03:50:03.373Z,27.60
2018-06-20T03:51:03.811Z,27.70
2018-06-20T03:52:02.926Z,27.90
2018-06-20T03:53:03.645Z,28.30
2018-06-20T03:54:02.914Z,28.80
2018-06-20T03:55:03.620Z,27.30
2018-06-20T03:56:02.858Z,28.10
2018-06-20T03:57:03.418Z,28.10
2018-06-20T03:58:05.214Z,29.00
2018-06-20T03:59:03.428Z,28.20
2018-06-20T04:00:03.875Z,28.60
2018-06-20T04:01:02.927Z,27.90
2018-06-20T04:02:03.491Z,28.50
2018-06-20T04:03:03.873Z,27.90
2018-06-20T04:04:03.336Z,31.70
2018-06-20T04:05:03.054Z,28.30
2018-06-20T04:06:03.167Z,28.00
2018-06-20T04:07:03.387Z,29.40
2018-06-20T04:08:03.165Z,29.10
2018-06-20T04:09:03.241Z,30.00
2018-06-20T04:10:03.211Z,28.80
2018-06-20T04:11:03.272Z,28.20
2018-06-20T04:12:03.275Z,28.20
2018-06-20T04:13:03.295Z,29.00
2018-06-20T04:14:03.307Z,29.00
2018-06-20T04:15:05.053Z,28.90
2018-06-20T04:16:03.302Z,28.20
2018-06-20T04:17:03.267Z,28.80
2018-06-20T04:18:03.294Z,29.80
2018-06-20T04:19:03.210Z,29.70
2018-06-20T04:20:03.110Z,28.90
2018-06-20T04:21:03.146Z,31.00
2018-06-20T04:22:03.202Z,29.40
2018-06-20T04:23:03.251Z,29.60
2018-06-20T04:24:03.242Z,31.10
2018-06-20T04:25:03.209Z,28.70
2018-06-20T04:26:03.250Z,31.20
2018-06-20T04:27:03.252Z,32.70
2018-06-20T04:28:03.312Z,31.60
2018-06-20T04:29:03.838Z,31.10
2018-06-20T04:30:03.277Z,28.80
2018-06-20T04:31:03.343Z,28.60
2018-06-20T04:32:03.281Z,30.60
2018-06-20T04:33:03.267Z,30.70
2018-06-20T04:34:03.320Z,30.20
2018-06-20T04:35:03.305Z,31.10
2018-06-20T04:36:03.288Z,30.80
2018-06-20T04:37:03.230Z,29.10
2018-06-20T04:38:03.282Z,32.10
2018-06-20T04:39:03.309Z,30.90
2018-06-20T04:40:03.284Z,30.10
2018-06-20T04:41:03.187Z,36.10
2018-06-20T04:42:03.159Z,29.60
2018-06-20T04:43:03.121Z,31.60
2018-06-20T04:44:03.134Z,30.60
2018-06-20T04:45:03.148Z,29.20
2018-06-20T04:46:03.131Z,30.40
2018-06-20T04:47:03.213Z,31.90
2018-06-20T04:48:03.168Z,31.20
2018-06-20T04:49:03.161Z,33.20
2018-06-20T04:50:03.169Z,32.30
2018-06-20T04:51:03.262Z,31.60
2018-06-20T04:52:05.341Z,31.20
2018-06-20T04:53:03.289Z,34.40
2018-06-20T04:54:03.307Z,31.60
2018-06-20T04:55:03.725Z,32.00
2018-06-20T04:56:03.865Z,34.60
2018-06-20T04:57:03.707Z,32.60
2018-06-20T04:58:04.917Z,29.80
2018-06-20T04:59:02.778Z,32.40
2018-06-20T05:00:03.373Z,32.70
2018-06-20T05:01:03.084Z,31.20
2018-06-20T05:02:03.259Z,31.30
2018-06-20T05:03:03.215Z,35.60
2018-06-20T05:04:03.355Z,32.30
2018-06-20T05:05:03.637Z,33.60
2018-06-20T05:06:02.880Z,35.10
2018-06-20T05:07:03.161Z,30.80
2018-06-20T05:08:03.192Z,34.50
2018-06-20T05:09:03.209Z,33.00
2018-06-20T05:10:03.497Z,36.40
2018-06-20T05:11:03.376Z,31.80
2018-06-20T05:12:05.642Z,31.70
2018-06-20T05:13:03.272Z,32.30
2018-06-20T05:14:03.728Z,33.10
2018-06-20T05:15:03.449Z,32.70
2018-06-20T05:16:03.279Z,32.70
2018-06-20T05:17:03.355Z,33.30
2018-06-20T05:18:03.208Z,33.00
2018-06-20T05:19:03.124Z,32.80
2018-06-20T05:20:03.212Z,33.20
2018-06-20T05:21:03.237Z,32.40
2018-06-20T05:22:03.262Z,32.90
2018-06-20T05:23:03.335Z,32.90
2018-06-20T05:24:03.731Z,32.80
2018-06-20T05:25:03.958Z,34.50
2018-06-20T05:26:05.229Z,35.20
2018-06-20T05:27:03.993Z,32.60
2018-06-20T05:28:03.966Z,36.20
2018-06-20T05:29:03.686Z,33.70
2018-06-20T05:30:03.418Z,31.90
2018-06-20T05:31:03.325Z,31.20
2018-06-20T05:32:03.481Z,30.50
2018-06-20T05:33:05.935Z,31.20
2018-06-20T05:34:03.416Z,32.10
2018-06-20T05:35:03.420Z,29.60
2018-06-20T05:36:03.729Z,32.50
2018-06-20T05:37:03.419Z,30.50
2018-06-20T05:38:03.413Z,30.50
2018-06-20T05:39:03.846Z,30.80
2018-06-20T05:40:03.370Z,30.90
2018-06-20T05:41:03.729Z,33.00
2018-06-20T05:42:03.390Z,30.10
2018-06-20T05:43:03.922Z,33.30
2018-06-20T05:44:03.375Z,31.40
2018-06-20T05:45:03.918Z,32.60
2018-06-20T05:46:03.302Z,29.40
2018-06-20T05:47:03.735Z,29.80
2018-06-20T05:48:03.404Z,29.30
2018-06-20T05:49:03.739Z,30.30
2018-06-20T05:50:03.415Z,30.60
2018-06-20T05:51:02.961Z,30.40
2018-06-20T05:52:03.733Z,30.50
2018-06-20T05:53:03.417Z,28.10
2018-06-20T05:54:03.437Z,29.30
2018-06-20T05:55:03.426Z,29.20
2018-06-20T05:56:03.157Z,29.50
2018-06-20T05:57:03.228Z,29.70
2018-06-20T05:58:03.715Z,30.30
2018-06-20T05:59:03.309Z,28.50
2018-06-20T06:00:02.968Z,29.50
2018-06-20T06:01:04.600Z,28.70
2018-06-20T06:02:03.390Z,30.10
2018-06-20T06:03:05.088Z,30.60
2018-06-20T06:04:04.042Z,30.10
2018-06-20T06:05:04.829Z,30.20
2018-06-20T06:06:03.348Z,27.70
2018-06-20T06:07:04.587Z,27.70
2018-06-20T06:08:03.247Z,28.40
2018-06-20T06:09:03.273Z,29.70
2018-06-20T06:10:03.406Z,29.20
2018-06-20T06:11:03.308Z,29.10
2018-06-20T06:12:03.327Z,28.90
2018-06-20T06:13:03.314Z,28.30
2018-06-20T06:14:03.322Z,28.60
2018-06-20T06:15:05.011Z,29.60
2018-06-20T06:16:03.325Z,29.50
2018-06-20T06:17:03.504Z,29.50
2018-06-20T06:18:03.387Z,28.50
2018-06-20T06:19:03.406Z,29.70
2018-06-20T06:20:03.234Z,29.90
2018-06-20T06:21:03.430Z,29.70
2018-06-20T06:22:03.612Z,30.50
2018-06-20T06:23:03.931Z,28.90
2018-06-20T06:24:03.200Z,27.20
2018-06-20T06:25:02.921Z,27.70
2018-06-20T06:26:06.033Z,28.50
2018-06-20T06:27:03.720Z,27.90
2018-06-20T06:28:03.441Z,26.70
2018-06-20T06:29:04.244Z,29.20
2018-06-20T06:30:03.601Z,26.90
2018-06-20T06:31:03.378Z,27.80
2018-06-20T06:32:03.434Z,28.10
2018-06-20T06:33:05.239Z,29.50
2018-06-20T06:34:02.931Z,27.20
2018-06-20T06:35:03.181Z,25.90
2018-06-20T06:36:03.386Z,24.90
2018-06-20T06:37:03.504Z,25.30
2018-06-20T06:38:05.393Z,25.60
2018-06-20T06:39:03.563Z,25.10
2018-06-20T06:40:03.406Z,24.20
2018-06-20T06:41:03.954Z,24.00
2018-06-20T06:42:03.283Z,23.40
2018-06-20T06:43:03.598Z,23.60
2018-06-20T06:44:03.057Z,24.00
2018-06-20T06:45:03.966Z,22.60
2018-06-20T06:46:04.088Z,24.10
2018-06-20T06:47:03.426Z,24.50
2018-06-20T06:48:04.056Z,24.60
2018-06-20T06:49:04.973Z,25.00
2018-06-20T06:50:04.037Z,26.80
2018-06-20T06:51:03.048Z,24.10
2018-06-20T06:52:03.478Z,23.90
2018-06-20T06:53:03.657Z,22.80
2018-06-20T06:54:03.439Z,22.60
2018-06-20T06:55:03.278Z,22.10
2018-06-20T06:56:03.457Z,21.50
2018-06-20T06:57:03.750Z,21.50
2018-06-20T06:58:03.911Z,21.30
2018-06-20T06:59:05.896Z,21.20
2018-06-20T07:00:03.018Z,20.60
2018-06-20T07:01:03.832Z,20.70
2018-06-20T07:02:03.300Z,22.10
2018-06-20T07:03:03.771Z,22.10
2018-06-20T07:04:03.449Z,22.50
2018-06-20T07:05:03.470Z,22.00
2018-06-20T07:06:03.557Z,20.80
2018-06-20T07:07:03.470Z,21.20
2018-06-20T07:08:03.469Z,20.60
2018-06-20T07:09:03.378Z,20.20
2018-06-20T07:10:03.341Z,20.70
2018-06-20T07:11:04.233Z,21.00
2018-06-20T07:12:03.944Z,21.50
2018-06-20T07:13:03.487Z,19.90
2018-06-20T07:14:03.486Z,20.50
2018-06-20T07:15:03.401Z,19.40
2018-06-20T07:16:04.066Z,19.20
2018-06-20T07:17:04.045Z,20.00
2018-06-20T07:18:05.236Z,20.60
2018-06-20T07:19:05.105Z,20.30
2018-06-20T07:20:03.554Z,19.70
2018-06-20T07:21:03.325Z,19.60
2018-06-20T07:22:03.934Z,20.10
2018-06-20T07:23:03.077Z,20.80
2018-06-20T07:24:03.482Z,19.80
2018-06-20T07:25:03.613Z,20.90
2018-06-20T07:26:03.946Z,19.80
2018-06-20T07:27:03.051Z,20.60
2018-06-20T07:28:03.413Z,20.20
2018-06-20T07:29:03.753Z,20.20
2018-06-20T07:30:03.692Z,19.80
2018-06-20T07:31:03.752Z,22.10
2018-06-20T07:32:03.977Z,20.50
2018-06-20T07:33:03.982Z,21.50
2018-06-20T07:34:04.020Z,20.40
2018-06-20T07:35:03.959Z,20.30
2018-06-20T07:36:03.330Z,19.90
2018-06-20T07:37:03.292Z,21.20
2018-06-20T07:38:03.655Z,20.80
2018-06-20T07:39:03.002Z,20.80
2018-06-20T07:40:03.414Z,20.20
2018-06-20T07:41:03.767Z,20.60
2018-06-20T07:42:03.543Z,20.00
2018-06-20T07:43:03.604Z,20.50
2018-06-20T07:44:04.255Z,20.40
2018-06-20T07:45:03.808Z,20.10
2018-06-20T07:46:03.957Z,18.90
2018-06-20T07:47:03.413Z,19.40
2018-06-20T07:48:03.849Z,18.90
2018-06-20T07:49:03.890Z,18.90
2018-06-20T07:50:03.423Z,18.80
2018-06-20T07:51:03.415Z,18.50
2018-06-20T07:52:03.956Z,19.20
2018-06-20T07:53:06.378Z,20.20
2018-06-20T07:54:03.196Z,21.40
2018-06-20T07:55:03.931Z,21.10
2018-06-20T07:56:03.577Z,22.40
2018-06-20T07:57:05.232Z,23.00
2018-06-20T07:58:05.489Z,21.10
2018-06-20T07:59:03.003Z,21.10
2018-06-20T08:00:04.378Z,21.80
2018-06-20T08:01:03.729Z,23.50
2018-06-20T08:02:03.463Z,23.40
2018-06-20T08:03:03.862Z,23.20
2018-06-20T08:04:03.763Z,23.60
2018-06-20T08:05:03.547Z,23.70
2018-06-20T08:06:04.407Z,21.90
2018-06-20T08:07:03.800Z,22.40
2018-06-20T08:08:04.346Z,21.90
2018-06-20T08:09:03.972Z,22.70
2018-06-20T08:10:03.841Z,22.10
2018-06-20T08:11:04.011Z,23.50
2018-06-20T08:12:03.925Z,24.40
2018-06-20T08:13:03.977Z,25.70
2018-06-20T08:14:04.510Z,25.50
2018-06-20T08:15:03.072Z,24.60
2018-06-20T08:16:03.972Z,24.40
2018-06-20T08:17:04.273Z,25.00
2018-06-20T08:18:04.013Z,24.20
2018-06-20T08:19:03.929Z,24.90
2018-06-20T08:20:03.692Z,25.70
2018-06-20T08:21:03.995Z,25.70
2018-06-20T08:22:03.432Z,26.10
2018-06-20T08:23:04.497Z,25.20
2018-06-20T08:24:03.442Z,24.60
2018-06-20T08:25:03.969Z,26.30
2018-06-20T08:26:03.499Z,25.20
2018-06-20T08:27:03.477Z,24.80
2018-06-20T08:28:03.973Z,25.90
2018-06-20T08:29:04.010Z,24.30
2018-06-20T08:30:04.475Z,23.40
2018-06-20T08:31:04.479Z,23.40
2018-06-20T08:32:03.465Z,23.90
2018-06-20T08:33:03.084Z,22.80
2018-06-20T08:34:03.490Z,22.90
2018-06-20T08:35:04.261Z,23.30
2018-06-20T08:36:04.320Z,21.20
2018-06-20T08:37:04.361Z,20.30
2018-06-20T08:38:03.484Z,20.80
2018-06-20T08:39:03.479Z,19.10
2018-06-20T08:40:03.492Z,19.10
2018-06-20T08:41:03.491Z,18.00
2018-06-20T08:42:03.977Z,19.00
2018-06-20T08:43:03.477Z,17.60
2018-06-20T08:44:03.526Z,17.70
2018-06-20T08:45:03.532Z,16.80
2018-06-20T08:46:04.023Z,18.60
2018-06-20T08:47:03.945Z,18.80
2018-06-20T08:48:03.945Z,18.10
2018-06-20T08:49:04.296Z,18.40
2018-06-20T08:50:04.328Z,17.30
2018-06-20T08:51:04.424Z,17.20
2018-06-20T08:52:04.219Z,17.70
2018-06-20T08:53:04.072Z,18.10
2018-06-20T08:54:03.757Z,18.50
2018-06-20T08:55:03.769Z,18.70
2018-06-20T08:56:04.012Z,19.30
2018-06-20T08:57:06.019Z,18.80
2018-06-20T08:58:04.448Z,17.80
2018-06-20T08:59:03.988Z,19.60
2018-06-20T09:00:03.692Z,18.70
2018-06-20T09:01:03.739Z,17.90
2018-06-20T09:02:03.845Z,19.10
2018-06-20T09:03:03.198Z,19.50
2018-06-20T09:04:04.335Z,20.10
2018-06-20T09:05:03.981Z,21.00
2018-06-20T09:06:03.997Z,19.10
2018-06-20T09:07:03.725Z,19.20
2018-06-20T09:08:03.827Z,19.30
2018-06-20T09:09:04.039Z,19.90
2018-06-20T09:10:03.496Z,19.80
2018-06-20T09:11:03.957Z,18.70
2018-06-20T09:12:04.014Z,17.70
2018-06-20T09:13:04.382Z,17.50
2018-06-20T09:14:04.043Z,17.20
2018-06-20T09:15:03.459Z,17.00
2018-06-20T09:16:03.712Z,15.80
2018-06-20T09:17:05.567Z,16.50
2018-06-20T09:18:03.532Z,15.90
2018-06-20T09:19:04.058Z,16.30
2018-06-20T09:20:03.449Z,15.00
2018-06-20T09:21:04.035Z,15.60
2018-06-20T09:22:04.564Z,15.50
2018-06-20T09:23:03.543Z,15.10
2018-06-20T09:24:03.947Z,14.70
2018-06-20T09:25:03.499Z,15.20
2018-06-20T09:26:03.624Z,14.60
2018-06-20T09:27:03.667Z,14.60
2018-06-20T09:28:03.677Z,14.00
2018-06-20T09:29:04.088Z,15.00
2018-06-20T09:30:04.020Z,15.30
2018-06-20T09:31:04.036Z,15.40
2018-06-20T09:32:06.089Z,16.20
2018-06-20T09:34:03.847Z,15.30
2018-06-20T09:35:06.063Z,15.40
2018-06-20T09:36:09.976Z,15.00
2018-06-20T09:37:04.522Z,15.90
2018-06-20T09:38:04.000Z,17.20
2018-06-20T09:39:03.541Z,16.70
2018-06-20T09:40:03.514Z,16.40
2018-06-20T09:41:04.009Z,15.90
2018-06-20T09:42:03.825Z,17.10
2018-06-20T09:43:04.341Z,16.90
2018-06-20T09:44:04.056Z,17.40
2018-06-20T09:45:04.059Z,17.20
2018-06-20T09:46:04.377Z,16.60
2018-06-20T09:47:03.584Z,17.00
2018-06-20T09:48:04.314Z,16.40
2018-06-20T09:49:03.521Z,16.50
2018-06-20T09:50:03.808Z,16.40
2018-06-20T09:51:03.354Z,16.40
2018-06-20T09:52:03.771Z,17.20
2018-06-20T09:53:04.319Z,16.00
2018-06-20T09:54:03.789Z,16.80
2018-06-20T09:55:04.214Z,15.90
2018-06-20T09:56:04.090Z,15.80
2018-06-20T09:57:03.782Z,16.00
2018-06-20T09:58:04.034Z,15.60
2018-06-20T09:59:05.068Z,16.10
2018-06-20T10:00:03.741Z,16.80
2018-06-20T10:01:03.745Z,16.40
2018-06-20T10:02:04.373Z,16.00
2018-06-20T10:03:04.016Z,16.00
2018-06-20T10:04:04.300Z,15.80
2018-06-20T10:05:09.980Z,16.10
2018-06-20T10:06:03.981Z,15.60
2018-06-20T10:07:04.064Z,15.40
2018-06-20T10:08:03.974Z,16.40
2018-06-20T10:09:04.397Z,15.90
2018-06-20T10:10:04.060Z,15.70
2018-06-20T10:11:04.348Z,15.50
2018-06-20T10:12:03.862Z,15.30
2018-06-20T10:13:03.495Z,15.60
2018-06-20T10:14:04.073Z,15.20
2018-06-20T10:15:04.365Z,15.30
2018-06-20T10:16:03.589Z,15.50
2018-06-20T10:17:03.854Z,15.00
2018-06-20T10:18:04.024Z,15.30
2018-06-20T10:19:03.475Z,15.40
2018-06-20T10:20:03.850Z,14.50
2018-06-20T10:21:04.373Z,15.30
2018-06-20T10:22:04.133Z,14.90
2018-06-20T10:23:03.754Z,15.10
2018-06-20T10:24:04.528Z,15.80
2018-06-20T10:25:04.023Z,15.30
2018-06-20T10:26:04.363Z,15.30
2018-06-20T10:27:04.860Z,14.40
2018-06-20T10:28:03.488Z,14.30
2018-06-20T10:29:03.794Z,13.80
2018-06-20T10:30:04.031Z,14.30
2018-06-20T10:31:04.023Z,14.10
2018-06-20T10:32:06.554Z,15.80
2018-06-20T10:33:03.844Z,14.80
2018-06-20T10:34:03.912Z,14.80
2018-06-20T10:35:04.990Z,14.00
2018-06-20T10:36:03.964Z,15.10
2018-06-20T10:37:04.087Z,13.80
2018-06-20T10:38:04.036Z,15.00
2018-06-20T10:39:03.725Z,14.40
2018-06-20T10:40:04.098Z,15.30
2018-06-20T10:41:03.648Z,15.50
2018-06-20T10:42:04.045Z,15.20
2018-06-20T10:43:04.510Z,14.60
2018-06-20T10:44:03.848Z,15.50
2018-06-20T10:45:04.161Z,14.90
2018-06-20T10:46:04.299Z,14.60
2018-06-20T10:47:06.080Z,15.00
2018-06-20T10:48:03.873Z,15.10
2018-06-20T10:49:03.942Z,14.60
2018-06-20T10:50:04.503Z,14.50
2018-06-20T10:51:03.652Z,14.50
2018-06-20T10:52:04.490Z,14.80
2018-06-20T10:53:05.070Z,15.90
2018-06-20T10:54:04.554Z,15.40
2018-06-20T10:55:03.933Z,14.90
2018-06-20T10:56:04.256Z,15.60
2018-06-20T10:57:03.928Z,15.90
2018-06-20T10:58:03.935Z,15.40
2018-06-20T10:59:04.367Z,15.90
2018-06-20T11:00:04.327Z,16.30
2018-06-20T11:01:04.345Z,16.60
2018-06-20T11:02:04.379Z,16.00
2018-06-20T11:03:04.039Z,16.50
2018-06-20T11:04:04.081Z,15.50
2018-06-20T11:05:05.808Z,15.50
2018-06-20T11:06:04.556Z,16.30
2018-06-20T11:07:03.910Z,15.50
2018-06-20T11:08:05.856Z,15.30
2018-06-20T11:09:04.011Z,15.60
2018-06-20T11:10:05.580Z,14.70
2018-06-20T11:11:04.061Z,15.10
2018-06-20T11:12:04.573Z,15.10
2018-06-20T11:13:04.380Z,15.80
2018-06-20T11:14:04.537Z,15.40
2018-06-20T11:15:04.167Z,15.30
2018-06-20T11:16:04.079Z,15.80
2018-06-20T11:17:07.006Z,15.40
2018-06-20T11:18:03.552Z,15.40
2018-06-20T11:19:06.190Z,15.00
2018-06-20T11:20:04.327Z,14.50
2018-06-20T11:21:04.020Z,14.30
2018-06-20T11:22:04.106Z,14.50
2018-06-20T11:23:04.383Z,14.20
2018-06-20T11:24:04.401Z,14.00
2018-06-20T11:25:04.442Z,13.50
2018-06-20T11:26:06.108Z,13.30
2018-06-20T11:27:06.120Z,13.10
2018-06-20T11:28:04.059Z,13.70
2018-06-20T11:29:04.080Z,13.50
2018-06-20T11:30:05.443Z,13.30
2018-06-20T11:31:03.716Z,13.50
2018-06-20T11:32:04.066Z,13.60
2018-06-20T11:33:03.675Z,13.40
2018-06-20T11:34:04.252Z,13.50
2018-06-20T11:35:06.125Z,12.60
2018-06-20T11:36:06.012Z,13.10
2018-06-20T11:37:04.570Z,12.60
2018-06-20T11:38:04.260Z,12.20
2018-06-20T11:39:06.522Z,12.50
2018-06-20T11:40:04.721Z,12.30
2018-06-20T11:41:06.646Z,11.80
2018-06-20T11:42:04.264Z,12.10
2018-06-20T11:43:04.124Z,11.60
2018-06-20T11:44:04.576Z,11.50
2018-06-20T11:45:04.872Z,11.50
2018-06-20T11:46:04.002Z,10.90
2018-06-20T11:47:03.771Z,10.40
2018-06-20T11:48:04.323Z,11.00
2018-06-20T11:49:04.377Z,10.70
2018-06-20T11:50:04.475Z,10.90
2018-06-20T11:51:04.358Z,10.60
2018-06-20T11:52:04.094Z,10.50
2018-06-20T11:53:04.534Z,9.50
2018-06-20T11:54:06.570Z,9.90
2018-06-20T11:55:04.479Z,9.70
2018-06-20T11:56:05.023Z,9.60
2018-06-20T11:57:04.562Z,10.10
2018-06-20T11:58:05.146Z,9.60
2018-06-20T11:59:04.110Z,8.90
2018-06-20T12:00:03.824Z,8.80
2018-06-20T12:01:04.631Z,8.40
2018-06-20T12:02:04.030Z,8.80
2018-06-20T12:03:08.493Z,8.40
2018-06-20T12:04:04.633Z,9.30
2018-06-20T12:05:04.073Z,8.30
2018-06-20T12:06:04.332Z,8.90
2018-06-20T12:07:04.602Z,8.70
2018-06-20T12:08:06.716Z,8.60
2018-06-20T12:09:06.981Z,8.20
2018-06-20T12:10:04.372Z,8.20
2018-06-20T12:11:03.748Z,7.30
2018-06-20T12:12:04.931Z,7.80
2018-06-20T12:13:04.914Z,8.30
2018-06-20T12:14:04.342Z,7.80
2018-06-20T12:15:05.183Z,8.00
2018-06-20T12:16:05.008Z,7.20
2018-06-20T12:17:04.116Z,7.60
2018-06-20T12:18:04.086Z,7.40
2018-06-20T12:19:04.542Z,7.10
2018-06-20T12:20:04.382Z,6.50
2018-06-20T12:21:04.666Z,6.80
2018-06-20T12:22:04.698Z,7.10
2018-06-20T12:23:04.424Z,7.30
2018-06-20T12:24:05.012Z,6.70
2018-06-20T12:25:04.411Z,5.80
2018-06-20T12:26:05.186Z,6.60
2018-06-20T12:27:04.475Z,6.40
2018-06-20T12:28:04.993Z,6.70
2018-06-20T12:29:04.939Z,6.40
2018-06-20T12:30:04.444Z,6.00
2018-06-20T12:31:04.549Z,6.80
2018-06-20T12:32:04.915Z,6.40
2018-06-20T12:33:04.672Z,6.10
2018-06-20T12:35:03.917Z,5.60
2018-06-20T12:36:04.642Z,6.00
2018-06-20T12:37:04.392Z,6.50
2018-06-20T12:38:04.721Z,6.30
2018-06-20T12:39:05.414Z,6.40
2018-06-20T12:40:03.894Z,5.80
2018-06-20T12:41:04.347Z,5.50
2018-06-20T12:42:04.337Z,6.90
2018-06-20T12:43:04.604Z,6.00
2018-06-20T12:44:04.663Z,6.30
2018-06-20T12:45:04.604Z,5.40
2018-06-20T12:46:04.376Z,5.10
2018-06-20T12:47:04.674Z,4.80
2018-06-20T12:48:04.606Z,4.90
2018-06-20T12:49:04.641Z,4.70
2018-06-20T12:50:04.496Z,4.50
2018-06-20T12:51:04.662Z,4.50
2018-06-20T12:52:04.426Z,4.40
2018-06-20T12:53:05.056Z,3.90
2018-06-20T12:54:06.527Z,4.40
2018-06-20T12:55:04.481Z,4.30
2018-06-20T12:56:04.520Z,4.10
2018-06-20T12:57:04.768Z,3.80
2018-06-20T12:58:04.149Z,4.20